createdAt,value
2023-05-06T00:01:52.436Z,95551.00
2023-05-06T00:04:18.773Z,95548.28
2023-05-06T00:06:46.457Z,95549.09
2023-05-06T00:09:12.768Z,95540.09
2023-05-06T00:11:39.024Z,95539.84
2023-05-06T00:14:05.805Z,95544.28
2023-05-06T00:16:32.302Z,95543.50
2023-05-06T00:18:58.684Z,95545.72
2023-05-06T00:21:26.362Z,95537.38
2023-05-06T00:23:53.729Z,95531.19
2023-05-06T00:26:20.060Z,95528.06
2023-05-06T00:28:46.357Z,95532.19
2023-05-06T00:31:12.724Z,95530.84
2023-05-06T00:33:39.032Z,95536.56
2023-05-06T00:36:05.637Z,95533.56
2023-05-06T00:38:31.968Z,95535.47
2023-05-06T00:40:58.936Z,95530.28
2023-05-06T00:43:25.247Z,95528.66
2023-05-06T00:45:51.604Z,95528.25
2023-05-06T00:48:18.215Z,95529.66
2023-05-06T00:50:45.628Z,95523.78
2023-05-06T00:53:12.086Z,95527.06
2023-05-06T00:55:39.365Z,95529.88
2023-05-06T00:58:06.780Z,95521.19
2023-05-06T01:00:34.005Z,95528.00
2023-05-06T01:03:00.397Z,95522.09
2023-05-06T01:05:35.343Z,95526.47
2023-05-06T01:08:11.582Z,95523.84
2023-05-06T01:10:44.683Z,95521.41
2023-05-06T01:13:21.040Z,95520.88
2023-05-06T01:15:51.236Z,95532.03
2023-05-06T01:18:20.952Z,95519.34
2023-05-06T01:20:49.297Z,95526.41
2023-05-06T01:23:17.180Z,95525.31
2023-05-06T01:25:43.587Z,95528.03
2023-05-06T01:28:11.345Z,95509.59
2023-05-06T01:30:45.145Z,95515.84
2023-05-06T01:33:17.170Z,95523.09
2023-05-06T01:35:53.944Z,95531.22
2023-05-06T01:38:30.650Z,95526.66
2023-05-06T01:40:58.053Z,95525.59
2023-05-06T01:43:29.323Z,95518.59
2023-05-06T01:45:56.751Z,95525.41
2023-05-06T01:48:25.997Z,95524.06
2023-05-06T01:50:52.637Z,95530.06
2023-05-06T01:53:19.011Z,95521.69
2023-05-06T01:55:45.986Z,95515.47
2023-05-06T01:58:12.267Z,95520.91
2023-05-06T02:00:38.669Z,95528.19
2023-05-06T02:03:05.038Z,95529.50
2023-05-06T02:05:31.438Z,95519.22
2023-05-06T02:07:57.882Z,95522.75
2023-05-06T02:10:24.189Z,95524.97
2023-05-06T02:12:51.176Z,95522.00
2023-05-06T02:15:17.661Z,95528.00
2023-05-06T02:17:44.012Z,95538.00
2023-05-06T02:20:10.609Z,95533.16
2023-05-06T02:22:36.915Z,95530.69
2023-05-06T02:25:03.531Z,95536.34
2023-05-06T02:27:30.086Z,95530.63
2023-05-06T02:29:57.018Z,95532.47
2023-05-06T02:32:23.352Z,95531.91
2023-05-06T02:34:50.925Z,95529.41
2023-05-06T02:37:17.231Z,95524.81
2023-05-06T02:39:43.558Z,95527.25
2023-05-06T02:42:13.855Z,95521.34
2023-05-06T02:44:40.183Z,95524.34
2023-05-06T02:47:07.096Z,95522.69
2023-05-06T02:49:33.432Z,95524.06
2023-05-06T02:51:59.797Z,95516.94
2023-05-06T02:54:26.800Z,95524.31
2023-05-06T02:56:53.219Z,95513.50
2023-05-06T02:59:19.485Z,95518.94
2023-05-06T03:01:45.747Z,95514.09
2023-05-06T03:04:12.748Z,95514.63
2023-05-06T03:06:39.116Z,95510.88
2023-05-06T03:09:05.531Z,95510.06
2023-05-06T03:11:32.026Z,95517.03
2023-05-06T03:13:58.333Z,95510.50
2023-05-06T03:16:24.705Z,95515.88
2023-05-06T03:18:50.986Z,95506.91
2023-05-06T03:21:18.014Z,95510.97
2023-05-06T03:23:44.349Z,95511.50
2023-05-06T03:26:10.666Z,95506.13
2023-05-06T03:28:36.960Z,95505.56
2023-05-06T03:31:03.342Z,95501.47
2023-05-06T03:33:29.634Z,95496.09
2023-05-06T03:35:55.906Z,95496.91
2023-05-06T03:38:22.805Z,95509.88
2023-05-06T03:40:49.165Z,95501.69
2023-05-06T03:43:16.039Z,95508.97
2023-05-06T03:45:42.461Z,95511.97
2023-05-06T03:48:08.814Z,95512.75
2023-05-06T03:50:35.390Z,95516.91
2023-05-06T03:53:01.899Z,95512.88
2023-05-06T03:55:28.979Z,95501.75
2023-05-06T03:57:55.265Z,95500.44
2023-05-06T04:00:21.663Z,95496.97
2023-05-06T04:02:48.020Z,95499.75
2023-05-06T04:05:14.535Z,95499.25
2023-05-06T04:07:40.790Z,95508.78
2023-05-06T04:10:08.494Z,95501.75
2023-05-06T04:12:35.458Z,95506.09
2023-05-06T04:15:02.114Z,95499.84
2023-05-06T04:17:28.493Z,95509.00
2023-05-06T04:19:55.137Z,95508.72
2023-05-06T04:22:21.500Z,95522.78
2023-05-06T04:24:47.785Z,95522.47
2023-05-06T04:27:14.358Z,95513.78
2023-05-06T04:29:41.259Z,95522.19
2023-05-06T04:32:09.565Z,95531.13
2023-05-06T04:34:36.181Z,95527.59
2023-05-06T04:37:02.957Z,95538.66
2023-05-06T04:39:31.338Z,95528.13
2023-05-06T04:41:57.648Z,95539.72
2023-05-06T04:44:24.032Z,95538.34
2023-05-06T04:46:50.988Z,95545.03
2023-05-06T04:49:17.287Z,95547.09
2023-05-06T04:51:43.557Z,95542.44
2023-05-06T04:54:09.871Z,95537.22
2023-05-06T04:56:36.143Z,95550.44
2023-05-06T04:59:02.432Z,95553.88
2023-05-06T05:01:28.816Z,95545.44
2023-05-06T05:03:55.830Z,95544.78
2023-05-06T05:06:22.154Z,95550.72
2023-05-06T05:08:48.481Z,95551.16
2023-05-06T05:11:14.800Z,95555.94
2023-05-06T05:13:41.106Z,95556.59
2023-05-06T05:16:07.506Z,95557.50
2023-05-06T05:18:33.847Z,95567.44
2023-05-06T05:21:00.789Z,95558.06
2023-05-06T05:23:27.053Z,95561.75
2023-05-06T05:25:53.353Z,95568.19
2023-05-06T05:28:19.644Z,95557.19
2023-05-06T05:30:45.934Z,95559.78
2023-05-06T05:33:12.314Z,95559.69
2023-05-06T05:35:38.722Z,95555.75
2023-05-06T05:38:05.629Z,95563.03
2023-05-06T05:40:31.929Z,95564.56
2023-05-06T05:42:58.200Z,95576.34
2023-05-06T05:45:24.555Z,95571.13
2023-05-06T05:47:50.838Z,95572.09
2023-05-06T05:50:17.161Z,95578.28
2023-05-06T05:52:43.437Z,95574.75
2023-05-06T05:55:10.763Z,95581.16
2023-05-06T05:57:37.369Z,95573.91
2023-05-06T06:00:05.071Z,95573.78
2023-05-06T06:02:33.593Z,95572.81
2023-05-06T06:05:00.292Z,95581.94
2023-05-06T06:07:26.754Z,95582.50
2023-05-06T06:09:53.068Z,95576.75
2023-05-06T06:12:20.033Z,95575.72
2023-05-06T06:14:47.718Z,95571.13
2023-05-06T06:17:14.227Z,95573.34
2023-05-06T06:19:40.504Z,95577.97
2023-05-06T06:22:06.811Z,95585.94
2023-05-06T06:24:34.165Z,95589.81
2023-05-06T06:27:00.729Z,95595.78
2023-05-06T06:29:27.766Z,95593.25
2023-05-06T06:31:55.249Z,95597.78
2023-05-06T06:34:21.586Z,95591.81
2023-05-06T06:36:47.854Z,95597.47
2023-05-06T06:39:14.166Z,95592.53
2023-05-06T06:41:41.007Z,95601.59
2023-05-06T06:44:07.395Z,95602.13
2023-05-06T06:46:34.381Z,95599.22
2023-05-06T06:49:00.882Z,95601.03
2023-05-06T06:51:27.356Z,95603.19
2023-05-06T06:53:53.625Z,95600.75
2023-05-06T06:56:21.185Z,95607.47
2023-05-06T06:58:47.465Z,95611.69
2023-05-06T07:01:13.805Z,95600.47
2023-05-06T07:03:40.747Z,95614.53
2023-05-06T07:06:07.937Z,95618.88
2023-05-06T07:08:34.302Z,95607.16
2023-05-06T07:11:00.628Z,95610.03
2023-05-06T07:13:26.903Z,95607.00
2023-05-06T07:15:53.259Z,95612.34
2023-05-06T07:18:19.594Z,95606.38
2023-05-06T07:20:46.542Z,95605.16
2023-05-06T07:23:12.821Z,95603.88
2023-05-06T07:25:39.121Z,95597.56
2023-05-06T07:28:05.401Z,95590.25
2023-05-06T07:30:31.753Z,95595.06
2023-05-06T07:32:58.183Z,95594.97
2023-05-06T07:35:24.589Z,95599.50
2023-05-06T07:37:51.801Z,95599.34
2023-05-06T07:40:18.101Z,95599.50
2023-05-06T07:42:44.395Z,95601.38
2023-05-06T07:45:11.504Z,95600.72
2023-05-06T07:47:38.251Z,95602.56
2023-05-06T07:50:06.106Z,95598.19
2023-05-06T07:52:32.591Z,95607.03
2023-05-06T07:54:59.641Z,95607.28
2023-05-06T07:57:26.038Z,95609.63
2023-05-06T07:59:52.456Z,95602.75
2023-05-06T08:02:19.009Z,95607.00
2023-05-06T08:04:45.447Z,95612.06
2023-05-06T08:07:14.128Z,95625.97
2023-05-06T08:09:40.419Z,95620.84
2023-05-06T08:12:07.459Z,95613.84
2023-05-06T08:14:33.750Z,95618.94
2023-05-06T08:17:00.130Z,95603.19
2023-05-06T08:19:26.458Z,95607.66
2023-05-06T08:21:52.840Z,95623.72
2023-05-06T08:24:19.854Z,95620.22
2023-05-06T08:26:46.181Z,95615.94
2023-05-06T08:29:13.450Z,95611.59
2023-05-06T08:31:39.817Z,95618.88
2023-05-06T08:34:06.167Z,95620.72
2023-05-06T08:36:32.516Z,95605.75
2023-05-06T08:38:58.814Z,95618.13
2023-05-06T08:41:26.265Z,95621.72
2023-05-06T08:43:54.654Z,95602.69
2023-05-06T08:46:22.322Z,95608.19
2023-05-06T08:48:48.747Z,95604.00
2023-05-06T08:51:15.158Z,95609.97
2023-05-06T08:53:46.451Z,95616.75
2023-05-06T08:56:14.709Z,95607.72
2023-05-06T08:58:44.645Z,95608.34
2023-05-06T09:01:11.425Z,95598.19
2023-05-06T09:03:38.530Z,95614.75
2023-05-06T09:06:05.206Z,95606.25
2023-05-06T09:08:31.529Z,95610.94
2023-05-06T09:10:57.817Z,95603.84
2023-05-06T09:13:24.244Z,95587.72
2023-05-06T09:15:53.747Z,95591.72
2023-05-06T09:18:20.345Z,95593.88
2023-05-06T09:20:48.844Z,95583.66
2023-05-06T09:23:16.649Z,95573.69
2023-05-06T09:25:45.097Z,95572.47
2023-05-06T09:28:12.552Z,95580.84
2023-05-06T09:30:40.167Z,95583.75
2023-05-06T09:33:06.735Z,95573.28
2023-05-06T09:35:37.092Z,95574.84
2023-05-06T09:38:06.498Z,95583.16
2023-05-06T09:40:33.478Z,95567.88
2023-05-06T09:42:59.973Z,95570.72
2023-05-06T09:45:26.954Z,95564.66
2023-05-06T09:47:54.145Z,95568.41
2023-05-06T09:50:21.731Z,95564.75
2023-05-06T09:52:49.064Z,95566.72
2023-05-06T09:55:18.206Z,95554.75
2023-05-06T09:57:45.982Z,95551.75
2023-05-06T10:00:14.073Z,95543.50
2023-05-06T10:02:41.269Z,95536.03
2023-05-06T10:05:09.366Z,95545.25
2023-05-06T10:07:36.435Z,95542.91
2023-05-06T10:10:03.136Z,95534.72
2023-05-06T10:12:30.818Z,95544.59
2023-05-06T10:14:57.135Z,95547.53
2023-05-06T10:17:25.418Z,95537.56
2023-05-06T10:19:56.527Z,95552.09
2023-05-06T10:22:37.068Z,95554.75
2023-05-06T10:25:10.107Z,95545.25
2023-05-06T10:27:40.116Z,95538.72
2023-05-06T10:30:10.066Z,95532.28
2023-05-06T10:32:41.498Z,95519.00
2023-05-06T10:35:15.331Z,95523.84
2023-05-06T10:37:43.236Z,95523.41
2023-05-06T10:40:10.754Z,95526.38
2023-05-06T10:42:37.765Z,95512.28
2023-05-06T10:45:06.072Z,95517.94
2023-05-06T10:48:08.250Z,95515.69
2023-05-06T10:50:34.580Z,95518.88
2023-05-06T10:53:00.913Z,95509.03
2023-05-06T10:55:29.420Z,95509.88
2023-05-06T10:57:59.754Z,95507.34
2023-05-06T11:00:26.252Z,95502.59
2023-05-06T11:02:57.040Z,95490.06
2023-05-06T11:05:24.396Z,95501.13
2023-05-06T11:07:51.610Z,95488.78
2023-05-06T11:10:31.750Z,95486.03
2023-05-06T11:12:59.715Z,95488.41
2023-05-06T11:15:37.164Z,95497.78
2023-05-06T11:18:42.766Z,95482.22
2023-05-06T11:21:39.876Z,95476.94
2023-05-06T11:24:07.529Z,95477.13
2023-05-06T11:26:34.073Z,95483.66
2023-05-06T11:29:03.336Z,95484.81
2023-05-06T11:31:30.173Z,95484.84
2023-05-06T11:34:01.579Z,95482.88
2023-05-06T11:36:28.010Z,95475.38
2023-05-06T11:38:55.548Z,95482.91
2023-05-06T11:41:23.179Z,95480.50
2023-05-06T11:43:51.049Z,95480.56
2023-05-06T11:46:19.216Z,95480.34
2023-05-06T11:48:45.929Z,95482.13
2023-05-06T11:51:12.279Z,95485.91
2023-05-06T11:53:38.743Z,95481.81
2023-05-06T11:56:06.261Z,95475.41
2023-05-06T11:58:33.086Z,95471.03
2023-05-06T12:01:01.001Z,95472.34
2023-05-06T12:03:29.364Z,95473.34
2023-05-06T12:05:56.453Z,95477.09
2023-05-06T12:08:27.849Z,95470.25
2023-05-06T12:10:55.989Z,95478.56
2023-05-06T12:13:22.456Z,95479.91
2023-05-06T12:15:49.631Z,95483.66
2023-05-06T12:18:16.524Z,95470.41
2023-05-06T12:20:44.162Z,95471.59
2023-05-06T12:23:11.696Z,95459.50
2023-05-06T12:25:38.954Z,95466.78
2023-05-06T12:28:13.584Z,95456.34
2023-05-06T12:30:39.968Z,95456.88
2023-05-06T12:33:08.305Z,95453.06
2023-05-06T12:35:34.982Z,95455.47
2023-05-06T12:38:09.382Z,95441.47
2023-05-06T12:40:35.945Z,95436.88
2023-05-06T12:43:02.380Z,95458.75
2023-05-06T12:45:28.906Z,95457.50
2023-05-06T12:47:56.785Z,95451.97
2023-05-06T12:50:34.237Z,95439.00
2023-05-06T12:53:01.249Z,95444.94
2023-05-06T12:55:29.931Z,95448.91
2023-05-06T12:57:57.776Z,95441.59
2023-05-06T13:00:24.431Z,95449.22
2023-05-06T13:02:50.847Z,95434.22
2023-05-06T13:05:17.232Z,95439.75
2023-05-06T13:07:43.553Z,95443.44
2023-05-06T13:10:10.774Z,95447.00
2023-05-06T13:12:38.033Z,95433.47
2023-05-06T13:15:05.104Z,95431.16
2023-05-06T13:17:31.546Z,95424.38
2023-05-06T13:19:58.044Z,95425.63
2023-05-06T13:22:24.347Z,95431.84
2023-05-06T13:24:50.858Z,95420.75
2023-05-06T13:27:17.399Z,95421.34
2023-05-06T13:29:44.392Z,95428.13
2023-05-06T13:32:10.730Z,95417.09
2023-05-06T13:34:37.156Z,95423.84
2023-05-06T13:37:03.485Z,95414.84
2023-05-06T13:39:30.259Z,95409.69
2023-05-06T13:41:56.572Z,95406.03
2023-05-06T13:44:23.799Z,95413.44
2023-05-06T13:46:51.735Z,95400.44
2023-05-06T13:49:18.289Z,95399.88
2023-05-06T13:51:44.687Z,95396.16
2023-05-06T13:54:11.117Z,95398.72
2023-05-06T13:56:37.397Z,95388.53
2023-05-06T13:59:03.813Z,95397.00
2023-05-06T14:01:30.348Z,95387.69
2023-05-06T14:03:57.294Z,95385.06
2023-05-06T14:06:23.645Z,95381.84
2023-05-06T14:08:49.954Z,95372.59
2023-05-06T14:11:16.257Z,95373.09
2023-05-06T14:13:42.574Z,95384.69
2023-05-06T14:16:08.902Z,95382.38
2023-05-06T14:18:35.206Z,95392.00
2023-05-06T14:21:02.819Z,95389.72
2023-05-06T14:23:29.103Z,95381.53
2023-05-06T14:25:55.386Z,95387.16
2023-05-06T14:28:21.688Z,95381.00
2023-05-06T14:30:50.038Z,95380.84
2023-05-06T14:33:16.369Z,95382.97
2023-05-06T14:35:42.970Z,95379.59
2023-05-06T14:38:10.191Z,95368.72
2023-05-06T14:40:37.967Z,95372.19
2023-05-06T14:43:04.283Z,95375.09
2023-05-06T14:45:30.640Z,95378.56
2023-05-06T14:47:57.061Z,95373.84
2023-05-06T14:50:23.404Z,95367.72
2023-05-06T14:52:49.762Z,95366.03
2023-05-06T14:55:17.167Z,95366.09
2023-05-06T14:57:43.466Z,95368.78
2023-05-06T15:00:13.913Z,95376.09
2023-05-06T15:02:42.407Z,95376.72
2023-05-06T15:05:09.994Z,95361.81
2023-05-06T15:07:36.552Z,95356.22
2023-05-06T15:10:03.549Z,95354.13
2023-05-06T15:12:30.658Z,95358.09
2023-05-06T15:14:56.973Z,95353.88
2023-05-06T15:17:23.350Z,95362.44
2023-05-06T15:19:49.801Z,95352.88
2023-05-06T15:22:16.084Z,95351.53
2023-05-06T15:24:42.745Z,95354.91
2023-05-06T15:27:09.097Z,95354.66
2023-05-06T15:29:37.259Z,95357.38
2023-05-06T15:32:03.834Z,95355.28
2023-05-06T15:34:30.247Z,95348.44
2023-05-06T15:36:56.615Z,95356.38
2023-05-06T15:39:23.575Z,95360.16
2023-05-06T15:41:50.949Z,95353.00
2023-05-06T15:44:20.717Z,95358.88
2023-05-06T15:46:48.086Z,95363.50
2023-05-06T15:49:45.336Z,95355.91
2023-05-06T15:52:01.411Z,95358.69
2023-05-06T15:54:28.163Z,95353.78
2023-05-06T15:56:55.586Z,95355.19
2023-05-06T15:59:21.885Z,95351.91
2023-05-06T16:04:18.507Z,95346.19
2023-05-06T16:06:44.864Z,95348.88
2023-05-06T16:09:11.221Z,95350.41
2023-05-06T16:11:37.504Z,95352.38
2023-05-06T16:14:04.007Z,95351.72
2023-05-06T16:16:30.411Z,95349.78
2023-05-06T16:18:57.429Z,95349.69
2023-05-06T16:21:23.761Z,95348.06
2023-05-06T16:23:50.122Z,95357.06
2023-05-06T16:26:16.497Z,95352.28
2023-05-06T16:28:42.973Z,95350.69
2023-05-06T16:31:09.424Z,95350.97
2023-05-06T16:33:35.861Z,95348.34
2023-05-06T16:36:03.365Z,95356.25
2023-05-06T16:38:29.694Z,95353.09
2023-05-06T16:40:56.005Z,95348.25
2023-05-06T16:43:22.481Z,95347.81
2023-05-06T16:45:51.873Z,95348.72
2023-05-06T16:48:18.483Z,95346.22
2023-05-06T16:50:44.960Z,95342.53
2023-05-06T16:53:12.047Z,95345.41
2023-05-06T16:55:38.475Z,95338.88
2023-05-06T16:58:04.923Z,95344.78
2023-05-06T17:00:31.429Z,95338.03
2023-05-06T17:02:57.992Z,95340.81
2023-05-06T17:05:24.402Z,95348.22
2023-05-06T17:07:51.085Z,95338.75
2023-05-06T17:10:18.170Z,95333.66
2023-05-06T17:12:44.471Z,95338.53
2023-05-06T17:15:11.476Z,95337.16
2023-05-06T17:17:39.040Z,95337.06
2023-05-06T17:20:06.693Z,95334.25
2023-05-06T17:22:33.139Z,95339.91
2023-05-06T17:24:59.464Z,95344.72
2023-05-06T17:27:26.395Z,95347.94
2023-05-06T17:29:52.648Z,95343.69
2023-05-06T17:32:19.195Z,95339.88
2023-05-06T17:34:45.521Z,95351.28
2023-05-06T17:37:11.833Z,95348.69
2023-05-06T17:39:38.180Z,95350.38
2023-05-06T17:42:04.608Z,95352.88
2023-05-06T17:44:32.325Z,95354.22
2023-05-06T17:46:58.741Z,95360.47
2023-05-06T17:49:25.061Z,95370.09
2023-05-06T17:51:51.450Z,95374.38
2023-05-06T17:54:18.124Z,95370.16
2023-05-06T17:56:49.586Z,95377.41
2023-05-06T17:59:19.302Z,95375.28
2023-05-06T18:01:46.502Z,95380.22
2023-05-06T18:04:13.147Z,95379.69
2023-05-06T18:06:40.855Z,95388.38
2023-05-06T18:09:07.465Z,95386.81
2023-05-06T18:11:34.241Z,95389.94
2023-05-06T18:14:00.617Z,95400.34
2023-05-06T18:16:26.981Z,95407.53
2023-05-06T18:18:53.990Z,95409.47
2023-05-06T18:21:20.448Z,95414.34
2023-05-06T18:23:46.980Z,95406.41
2023-05-06T18:26:18.749Z,95413.97
2023-05-06T18:28:50.928Z,95405.75
2023-05-06T18:31:17.290Z,95416.88
2023-05-06T18:33:43.602Z,95408.97
2023-05-06T18:36:11.869Z,95408.75
2023-05-06T18:38:38.206Z,95422.06
2023-05-06T18:41:06.086Z,95426.81
2023-05-06T18:43:32.491Z,95427.97
2023-05-06T18:45:58.831Z,95423.88
2023-05-06T18:48:25.308Z,95437.13
2023-05-06T18:50:53.474Z,95442.25
2023-05-06T18:53:20.661Z,95447.84
2023-05-06T18:55:47.057Z,95453.06
2023-05-06T18:58:13.377Z,95451.56
2023-05-06T19:00:40.178Z,95457.25
2023-05-06T19:03:06.501Z,95450.31
2023-05-06T19:05:32.836Z,95447.31
2023-05-06T19:07:59.199Z,95459.75
2023-05-06T19:10:26.164Z,95461.28
2023-05-06T19:12:52.535Z,95462.81
2023-05-06T19:15:18.901Z,95464.81
2023-05-06T19:17:45.227Z,95466.25
2023-05-06T19:20:13.566Z,95463.13
2023-05-06T19:22:40.396Z,95466.28
2023-05-06T19:25:08.149Z,95464.28
2023-05-06T19:27:35.388Z,95458.63
2023-05-06T19:30:01.738Z,95473.44
2023-05-06T19:32:28.052Z,95473.25
2023-05-06T19:34:54.350Z,95465.78
2023-05-06T19:37:20.669Z,95469.81
2023-05-06T19:39:48.775Z,95474.88
2023-05-06T19:42:15.286Z,95468.78
2023-05-06T19:44:42.228Z,95476.25
2023-05-06T19:47:08.519Z,95477.16
2023-05-06T19:49:35.080Z,95483.13
2023-05-06T19:52:01.407Z,95480.69
2023-05-06T19:54:27.687Z,95476.13
2023-05-06T19:56:53.973Z,95482.31
2023-05-06T19:59:20.289Z,95476.34
2023-05-06T20:01:47.272Z,95481.72
2023-05-06T20:04:13.568Z,95484.31
2023-05-06T20:06:39.849Z,95477.06
2023-05-06T20:09:06.135Z,95479.63
2023-05-06T20:11:35.444Z,95467.13
2023-05-06T20:14:01.743Z,95473.16
2023-05-06T20:16:28.123Z,95471.78
2023-05-06T20:18:55.064Z,95475.59
2023-05-06T20:21:21.406Z,95474.78
2023-05-06T20:23:47.723Z,95470.84
2023-05-06T20:26:14.010Z,95471.38
2023-05-06T20:28:40.332Z,95473.88
2023-05-06T20:31:06.690Z,95474.97
2023-05-06T20:33:33.146Z,95468.50
2023-05-06T20:36:00.179Z,95460.78
2023-05-06T20:38:26.542Z,95474.69
2023-05-06T20:40:52.966Z,95466.31
2023-05-06T20:43:19.261Z,95464.97
2023-05-06T20:45:45.645Z,95464.25
2023-05-06T20:48:12.996Z,95470.81
2023-05-06T20:50:41.241Z,95471.47
2023-05-06T20:53:08.243Z,95471.84
2023-05-06T20:55:34.831Z,95470.91
2023-05-06T20:58:01.160Z,95474.72
2023-05-06T21:00:27.483Z,95468.34
2023-05-06T21:02:53.870Z,95475.72
2023-05-06T21:05:20.407Z,95479.31
2023-05-06T21:07:46.769Z,95473.13
2023-05-06T21:10:13.832Z,95473.63
2023-05-06T21:12:46.694Z,95468.78
2023-05-06T21:15:13.389Z,95469.88
2023-05-06T21:17:40.013Z,95469.34
2023-05-06T21:20:07.675Z,95470.25
2023-05-06T21:22:34.010Z,95474.72
2023-05-06T21:25:00.318Z,95472.59
2023-05-06T21:27:27.307Z,95472.66
2023-05-06T21:29:53.603Z,95476.09
2023-05-06T21:32:19.948Z,95467.75
2023-05-06T21:34:46.215Z,95468.84
2023-05-06T21:37:12.510Z,95468.03
2023-05-06T21:39:38.861Z,95476.25
2023-05-06T21:42:05.189Z,95471.41
2023-05-06T21:44:32.236Z,95476.03
2023-05-06T21:46:58.691Z,95471.16
2023-05-06T21:49:24.980Z,95465.81
2023-05-06T21:51:51.488Z,95468.22
2023-05-06T21:54:17.815Z,95467.19
2023-05-06T21:56:44.298Z,95470.50
2023-05-06T21:59:10.603Z,95464.81
2023-05-06T22:01:38.154Z,95461.34
2023-05-06T22:04:10.204Z,95461.34
2023-05-06T22:06:36.646Z,95464.88
2023-05-06T22:09:07.922Z,95463.34
2023-05-06T22:11:34.726Z,95468.50
2023-05-06T22:14:01.050Z,95468.19
2023-05-06T22:16:27.393Z,95477.75
2023-05-06T22:18:54.605Z,95470.16
2023-05-06T22:21:20.959Z,95467.53
2023-05-06T22:23:47.225Z,95468.44
2023-05-06T22:26:13.532Z,95462.00
2023-05-06T22:28:39.934Z,95467.78
2023-05-06T22:31:06.259Z,95465.38
2023-05-06T22:33:32.609Z,95456.19
2023-05-06T22:35:59.736Z,95464.56
2023-05-06T22:38:26.036Z,95456.44
2023-05-06T22:40:52.322Z,95456.19
2023-05-06T22:43:18.594Z,95451.25
2023-05-06T22:45:45.030Z,95442.84
2023-05-06T22:48:11.463Z,95453.19
2023-05-06T22:50:37.822Z,95452.38
2023-05-06T22:58:21.014Z,95449.06
2023-05-06T23:00:47.511Z,95447.25
2023-05-06T23:03:14.055Z,95448.69
2023-05-06T23:05:40.736Z,95441.13
2023-05-06T23:08:07.047Z,95455.72
2023-05-06T23:10:33.413Z,95450.00
2023-05-06T23:13:00.520Z,95444.88
2023-05-06T23:15:27.781Z,95444.88
2023-05-06T23:17:54.518Z,95439.16
2023-05-06T23:20:21.293Z,95437.91
2023-05-06T23:22:47.616Z,95438.50
2023-05-06T23:25:14.398Z,95440.13
2023-05-06T23:27:41.189Z,95426.59
2023-05-06T23:30:08.571Z,95435.78
2023-05-06T23:32:35.680Z,95442.38
2023-05-06T23:35:02.149Z,95434.22
2023-05-06T23:37:28.464Z,95432.09
2023-05-06T23:39:56.114Z,95432.34
2023-05-06T23:42:22.846Z,95440.25
2023-05-06T23:44:50.033Z,95431.59
2023-05-06T23:47:16.358Z,95430.25
2023-05-06T23:49:43.292Z,95432.22
2023-05-06T23:52:10.224Z,95436.28
2023-05-06T23:54:36.589Z,95439.03
2023-05-06T23:57:02.921Z,95439.06
2023-05-06T23:59:31.478Z,95438.88
